CW0214 Abrantes PT current weather conditions

sailwx.info

Wind from 091 at 5 knots gusting 8

Air temperature 28.3° C
Dewpoint 15.9° C

Last reported at 2019-Aug-21 10:09 UTC.
Time now 2019-Aug-21 11:13 UTC

Location: N 39°28' W 008°12'.
View on Google Maps.

See reports from other nearby stations

  
Tides and Currents Weather Stations Pressure Air Temp Water Temp Dewpoint Dewpoint Depression Visibility Wind Speed Wind Dir Waves Ship Positions
date/time (UTC)wind fromknots sea level pressurealtimeterstation pressurevisibilityair tempwater tempwave heightnotes
2019-Aug-21 10:09 091 5 gusting 8 28.3
2019-Aug-21 10:04 090 6 gusting 10 28.9
2019-Aug-21 09:59 116 5 gusting 10 28.3
2019-Aug-21 09:54 119 5 gusting 7 28.9
2019-Aug-21 09:49 088 4 gusting 6 28.9
2019-Aug-21 09:44 019 2 gusting 6 28.3
2019-Aug-21 09:39 029 28.3
2019-Aug-21 09:34 033 2 gusting 10 27.8
2019-Aug-21 09:29 033 2 gusting 6 27.2
2019-Aug-21 09:24 103 5 gusting 7 26.7
2019-Aug-21 09:19 100 2 gusting 11 26.7
2019-Aug-21 09:14 127 3 gusting 10 26.7
2019-Aug-21 09:09 109 5 gusting 7 26.1
2019-Aug-21 09:04 081 2 gusting 6 25.6
2019-Aug-21 08:59 086 2 gusting 8 25.6
2019-Aug-21 08:54 084 4 gusting 6 25.0
2019-Aug-21 08:49 109 4 gusting 6 25.0
2019-Aug-21 08:44 133 4 gusting 6 24.4
2019-Aug-21 08:39 082 1 gusting 5 24.4
2019-Aug-21 08:34 285 1 gusting 2 23.9
2019-Aug-21 08:29 285 0 gusting 1 24.4
2019-Aug-21 08:24 284 23.9
2019-Aug-21 08:19 298 23.3
2019-Aug-21 08:14 298 22.8
2019-Aug-21 08:09 298 22.2
2019-Aug-21 08:04 298 21.7
2019-Aug-21 07:59 298 21.1
2019-Aug-21 07:54 298 20.6
2019-Aug-21 07:49 298 20.6
2019-Aug-21 07:44 298 20.0
2019-Aug-21 07:39 298 19.4
2019-Aug-21 07:34 298 18.9
2019-Aug-21 07:29 298 18.3
2019-Aug-21 07:24 298 18.3
2019-Aug-21 07:19 298 17.8
2019-Aug-21 07:14 298 17.8
2019-Aug-21 07:09 298 17.8
2019-Aug-21 07:04 298 17.8
2019-Aug-21 06:59 298 17.8
2019-Aug-21 06:54 298 17.8
2019-Aug-21 06:49 300 17.8
2019-Aug-21 06:44 300 17.2
2019-Aug-21 06:39 300 17.2
2019-Aug-21 06:34 302 0 gusting 2 17.2
2019-Aug-21 06:29 301 17.2
2019-Aug-21 06:24 301 17.2
2019-Aug-21 06:19 301 17.2
2019-Aug-21 06:14 301 17.8
2019-Aug-21 06:09 301 17.8
2019-Aug-21 06:04 301 17.8
2019-Aug-21 05:59 300 17.8
2019-Aug-21 05:54 301 17.8
2019-Aug-21 05:49 301 17.8
2019-Aug-21 05:44 301 17.8
2019-Aug-21 05:39 301 18.3
2019-Aug-21 05:34 301 18.3
2019-Aug-21 05:29 301 18.3
2019-Aug-21 05:24 301 18.3
2019-Aug-21 05:19 301 18.3
2019-Aug-21 05:14 301 18.3
2019-Aug-21 05:09 301 18.3
2019-Aug-21 05:04 302 1 gusting 5 18.3
2019-Aug-21 04:59 300 2 gusting 5 18.3
2019-Aug-21 04:54 291 1 gusting 5 18.3
2019-Aug-21 04:49 287 18.3
2019-Aug-21 04:44 287 0 gusting 2 18.9
2019-Aug-21 04:39 299 1 gusting 5 18.9
2019-Aug-21 04:34 307 4 gusting 6 18.9
2019-Aug-21 04:29 285 0 gusting 5 18.3
2019-Aug-21 04:24 282 0 gusting 4 18.9
2019-Aug-21 04:19 282 18.9
2019-Aug-21 04:14 282 18.9
2019-Aug-21 04:09 282 18.9
2019-Aug-21 04:04 282 0 gusting 6 18.9
2019-Aug-21 03:59 296 18.9
2019-Aug-21 03:54 295 18.9
2019-Aug-21 03:49 295 0 gusting 4 18.9
2019-Aug-21 03:44 295 18.9
2019-Aug-21 03:39 295 18.9
2019-Aug-21 03:34 295 18.9
2019-Aug-21 03:29 295 18.9
2019-Aug-21 03:24 295 0 gusting 2 18.9
2019-Aug-21 03:19 295 0 gusting 2 18.9
2019-Aug-21 03:14 294 18.9
2019-Aug-21 03:09 294 18.9
2019-Aug-21 03:04 296 2 gusting 7 18.9
2019-Aug-21 02:59 332 4 gusting 7 18.9
2019-Aug-21 02:54 306 18.9
2019-Aug-21 02:49 320 0 gusting 5 19.4
2019-Aug-21 02:44 284 1 gusting 6 19.4
2019-Aug-21 02:39 269 19.4
2019-Aug-21 02:34 266 2 gusting 6 19.4
2019-Aug-21 02:29 252 2 gusting 5 19.4
2019-Aug-21 02:24 269 0 gusting 5 19.4
2019-Aug-21 02:19 269 19.4
2019-Aug-21 02:14 269 19.4
2019-Aug-21 02:09 269 19.4
2019-Aug-21 02:04 269 19.4
2019-Aug-21 01:59 269 19.4
2019-Aug-21 01:54 269 0 gusting 4 19.4
2019-Aug-21 01:49 267 2 gusting 6 19.4
2019-Aug-21 01:44 250 0 gusting 2 19.4
2019-Aug-21 01:39 250 19.4
2019-Aug-21 01:34 250 19.4
2019-Aug-21 01:29 250 19.4
2019-Aug-21 01:24 250 0 gusting 2 20.0
2019-Aug-21 01:19 251 20.0
2019-Aug-21 01:14 252 0 gusting 4 20.0
2019-Aug-21 01:09 286 20.0
2019-Aug-21 01:04 288 20.0
2019-Aug-21 00:59 288 20.0
2019-Aug-21 00:54 288 20.0
2019-Aug-21 00:49 288 0 gusting 2 20.0
2019-Aug-21 00:44 288 20.6
2019-Aug-21 00:39 276 1 gusting 5 20.6
2019-Aug-21 00:34 263 20.6
2019-Aug-21 00:29 263 20.6
2019-Aug-21 00:24 262 20.6
2019-Aug-21 00:19 263 20.6
2019-Aug-21 00:14 263 0 gusting 4 20.6
2019-Aug-21 00:09 262 20.6
2019-Aug-21 00:04 263 20.6
2019-Aug-20 23:59 263 21.1
2019-Aug-20 23:54 263 21.1
2019-Aug-20 23:49 262 21.1
2019-Aug-20 23:44 261 21.1
2019-Aug-20 23:39 254 0 gusting 4 21.1
2019-Aug-20 23:34 255 21.1
2019-Aug-20 23:29 273 0 gusting 4 21.1
2019-Aug-20 23:24 223 21.1
2019-Aug-20 23:19 287 21.1
2019-Aug-20 23:14 051 21.1
2019-Aug-20 23:09 303 0 gusting 8 21.7
2019-Aug-20 23:04 290 1 gusting 5 21.7
2019-Aug-20 22:59 269 0 gusting 6 21.7
2019-Aug-20 22:54 276 0 gusting 4 21.7
2019-Aug-20 22:49 270 21.7
2019-Aug-20 22:44 275 21.7
2019-Aug-20 22:39 207 0 gusting 6 21.7
2019-Aug-20 22:34 270 1 gusting 8 21.7
2019-Aug-20 22:29 277 21.7
2019-Aug-20 22:24 224 1 gusting 5 21.7
2019-Aug-20 22:19 281 0 gusting 4 22.2
2019-Aug-20 22:14 265 0 gusting 6 22.2
2019-Aug-20 22:09 260 2 gusting 7 22.2
2019-Aug-20 22:04 261 4 gusting 7 22.2
2019-Aug-20 21:59 266 0 gusting 6 22.2
2019-Aug-20 21:54 283 2 gusting 6 22.2
2019-Aug-20 21:49 260 1 gusting 13 22.8
2019-Aug-20 21:44 280 4 gusting 7 22.8
2019-Aug-20 21:39 273 4 gusting 8 22.8
2019-Aug-20 21:34 283 0 gusting 8 22.8
2019-Aug-20 21:29 281 5 gusting 10 22.8
2019-Aug-20 21:24 272 4 gusting 11 22.8
2019-Aug-20 21:19 277 4 gusting 11 23.3
2019-Aug-20 21:14 298 5 gusting 8 23.3
2019-Aug-20 21:09 297 2 gusting 12 23.3
2019-Aug-20 21:04 291 2 gusting 8 23.3
2019-Aug-20 20:59 264 1 gusting 7 23.3
2019-Aug-20 20:54 295 5 gusting 11 23.3
2019-Aug-20 20:49 259 1 gusting 5 23.9
2019-Aug-20 20:44 284 2 gusting 6 23.9
2019-Aug-20 20:39 271 1 gusting 7 23.9
2019-Aug-20 20:34 273 3 gusting 10 23.9
2019-Aug-20 20:29 278 5 gusting 10 23.9
2019-Aug-20 20:24 279 1 gusting 12 24.4
2019-Aug-20 20:19 297 2 gusting 13 24.4
2019-Aug-20 20:14 238 0 gusting 6 24.4
2019-Aug-20 20:09 300 5 gusting 17 24.4
2019-Aug-20 20:04 293 2 gusting 6 25.0
2019-Aug-20 19:59 263 4 gusting 10 25.0
2019-Aug-20 19:54 269 1 gusting 8 25.0
2019-Aug-20 19:49 279 2 gusting 10 25.6
2019-Aug-20 19:44 221 4 gusting 10 25.6
2019-Aug-20 19:39 312 2 gusting 10 25.6
2019-Aug-20 19:34 227 2 gusting 10 25.6
2019-Aug-20 19:29 212 0 gusting 7 26.1
2019-Aug-20 19:24 250 1 gusting 6 26.1
2019-Aug-20 19:19 212 0 gusting 7 26.1
2019-Aug-20 19:14 201 1 gusting 10 26.7
2019-Aug-20 19:09 183 2 gusting 13 26.7
2019-Aug-20 19:04 197 3 gusting 8 26.7
2019-Aug-20 18:59 228 3 gusting 10 27.2
2019-Aug-20 18:54 196 2 gusting 10 27.2
2019-Aug-20 18:49 208 3 gusting 8 27.8
2019-Aug-20 18:44 188 0 gusting 6 27.8
2019-Aug-20 18:39 210 4 gusting 10 28.3
2019-Aug-20 18:34 189 4 gusting 10 28.3
2019-Aug-20 18:29 212 1 gusting 8 28.3
2019-Aug-20 18:24 210 4 gusting 10 28.9
2019-Aug-20 18:19 239 4 gusting 15 28.9
2019-Aug-20 18:14 166 2 gusting 13 29.4
2019-Aug-20 18:09 085 5 gusting 12 29.4
2019-Aug-20 18:04 192 1 gusting 6 29.4
2019-Aug-20 17:59 260 1 gusting 7 30.0
2019-Aug-20 17:54 205 1 gusting 13 30.0
2019-Aug-20 17:49 205 4 gusting 11 30.6
2019-Aug-20 17:44 184 2 gusting 10 30.6
2019-Aug-20 17:39 101 0 gusting 8 30.6
2019-Aug-20 17:34 237 4 gusting 13 30.6
2019-Aug-20 17:29 243 4 gusting 18 31.1
2019-Aug-20 17:24 234 4 gusting 10 31.1
2019-Aug-20 17:19 198 4 gusting 11 31.1
2019-Aug-20 17:14 232 4 gusting 10 31.7
2019-Aug-20 17:09 234 5 gusting 10 31.7
2019-Aug-20 17:04 271 5 gusting 15 31.7
2019-Aug-20 16:59 265 5 gusting 10 31.7
2019-Aug-20 16:54 240 6 gusting 13 31.7
2019-Aug-20 16:49 284 4 gusting 13 31.7
2019-Aug-20 16:44 255 4 gusting 15 32.2
2019-Aug-20 16:39 289 2 gusting 13 32.2
2019-Aug-20 16:34 238 4 gusting 10 32.2
2019-Aug-20 16:29 265 6 gusting 15 32.2
2019-Aug-20 16:24 283 6 gusting 17 32.8
2019-Aug-20 16:19 266 5 gusting 13 33.3
2019-Aug-20 16:14 259 6 gusting 12 33.3
2019-Aug-20 16:09 246 4 gusting 12 33.9
2019-Aug-20 16:04 197 4 gusting 8 33.9
2019-Aug-20 15:59 232 2 gusting 10 33.9
2019-Aug-20 15:54 231 2 gusting 8 33.9
2019-Aug-20 15:49 251 1 gusting 11 33.9
2019-Aug-20 15:44 232 3 gusting 7 33.9
2019-Aug-20 15:39 306 4 gusting 8 33.9
2019-Aug-20 15:34 246 33.9
2019-Aug-20 15:29 194 2 gusting 10 33.9
2019-Aug-20 15:24 207 4 gusting 8 33.9
2019-Aug-20 15:19 314 3 gusting 12 34.4
2019-Aug-20 15:14 210 2 gusting 6 33.9
2019-Aug-20 15:09 291 0 gusting 7 33.9
2019-Aug-20 15:04 211 2 gusting 8 33.9
2019-Aug-20 14:59 243 0 gusting 10 33.9
2019-Aug-20 14:54 233 1 gusting 10 33.9
2019-Aug-20 14:49 319 1 gusting 6 33.3
2019-Aug-20 14:44 237 0 gusting 6 33.3
2019-Aug-20 14:39 238 5 gusting 13 33.3
2019-Aug-20 14:34 262 4 gusting 8 33.3
2019-Aug-20 14:29 205 5 gusting 11 33.3
2019-Aug-20 14:24 202 4 gusting 10 33.3
2019-Aug-20 14:19 275 6 gusting 10 33.3
2019-Aug-20 14:14 246 32.8
2019-Aug-20 14:09 176 0 gusting 8 32.8
2019-Aug-20 14:04 182 4 gusting 10 33.3
2019-Aug-20 13:59 238 4 gusting 10 33.3
2019-Aug-20 13:54 229 2 gusting 11 33.9
2019-Aug-20 13:49 229 1 gusting 11 33.9
2019-Aug-20 13:44 210 5 gusting 12 33.9
2019-Aug-20 13:39 191 1 gusting 6 33.9
2019-Aug-20 13:34 233 0 gusting 6 33.3
2019-Aug-20 13:29 241 6 gusting 10 33.3
2019-Aug-20 13:24 250 2 gusting 8 33.3
2019-Aug-20 13:19 260 32.8
2019-Aug-20 13:14 200 2 gusting 11 32.8
2019-Aug-20 13:09 263 1 gusting 11 32.8
2019-Aug-20 13:04 246 3 gusting 7 32.8
2019-Aug-20 12:59 236 5 gusting 8 32.8
2019-Aug-20 12:54 214 1 gusting 4 32.8
2019-Aug-20 12:49 261 3 gusting 6 32.2
2019-Aug-20 12:44 287 4 gusting 8 32.2
2019-Aug-20 12:39 224 4 gusting 10 32.2
2019-Aug-20 12:34 221 1 gusting 5 32.2
2019-Aug-20 12:29 336 3 gusting 7 32.2
2019-Aug-20 12:24 259 2 gusting 8 32.8
2019-Aug-20 12:19 203 3 gusting 7 32.2
2019-Aug-20 12:14 282 1 gusting 6 32.2
2019-Aug-20 12:09 328 1 gusting 6 32.2
2019-Aug-20 12:04 259 2 gusting 6 31.7
2019-Aug-20 11:59 276 3 gusting 7 31.1
2019-Aug-20 11:54 191 0 gusting 6 31.1
2019-Aug-20 11:49 159 3 gusting 6 31.1
2019-Aug-20 11:44 237 1 gusting 6 30.6
2019-Aug-20 11:39 261 4 gusting 8 30.0
2019-Aug-20 11:34 299 3 gusting 6 30.0
2019-Aug-20 11:29 256 4 gusting 6 30.0
2019-Aug-20 11:24 282 0 gusting 5 29.4
2019-Aug-20 11:19 236 4 gusting 7 28.9
2019-Aug-20 11:14 264 1 gusting 6 28.3
2019-Aug-20 11:09 234 2 gusting 7 27.8
2019-Aug-20 11:04 234 1 gusting 6 27.2
2019-Aug-20 10:59 241 1 gusting 6 27.2
2019-Aug-20 10:54 236 3 gusting 5 27.2
2019-Aug-20 10:49 259 0 gusting 4 26.7
2019-Aug-20 10:44 243 0 gusting 5 26.1
2019-Aug-20 10:39 259 0 gusting 4 25.6
2019-Aug-20 10:34 279 0 gusting 5 25.6
2019-Aug-20 10:29 279 1 gusting 5 25.6
2019-Aug-20 10:24 229 25.6
2019-Aug-20 10:19 248 25.0
2019-Aug-20 10:14 240 2 gusting 5 25.0
2019-Aug-20 10:09 271 2 gusting 6 24.4
2019-Aug-20 10:04 266 0 gusting 4 25.0
2019-Aug-20 09:59 190 0 gusting 4 24.4
2019-Aug-20 09:54 233 1 gusting 6 24.4
2019-Aug-20 09:49 270 1 gusting 6 23.9
2019-Aug-20 09:44 242 0 gusting 6 23.3
2019-Aug-20 09:39 239 1 gusting 4 22.8
2019-Aug-20 09:34 225 22.8
2019-Aug-20 09:29 217 22.8
2019-Aug-20 09:24 224 22.2
2019-Aug-20 09:19 274 0 gusting 6 21.7
2019-Aug-20 09:14 233 2 gusting 6 21.7
2019-Aug-20 09:09 242 1 gusting 6 21.7
2019-Aug-20 09:04 234 2 gusting 6 21.1
2019-Aug-20 08:59 245 2 gusting 6 21.1
2019-Aug-20 08:54 241 0 gusting 6 20.6
2019-Aug-20 08:49 230 0 gusting 6 20.6
2019-Aug-20 08:44 246 20.0
2019-Aug-20 08:39 249 0 gusting 4 20.0
2019-Aug-20 08:34 255 1 gusting 6 20.0
2019-Aug-20 08:29 244 0 gusting 2 19.4
2019-Aug-20 08:24 244 1 gusting 5 19.4
2019-Aug-20 08:19 242 1 gusting 6 19.4
2019-Aug-20 08:14 237 18.9
2019-Aug-20 08:09 234 18.9
2019-Aug-20 08:04 234 2 gusting 6 18.9
2019-Aug-20 07:59 242 18.3
2019-Aug-20 07:54 242 1 gusting 4 18.3
2019-Aug-20 07:49 244 17.8
2019-Aug-20 07:44 244 17.2
2019-Aug-20 07:39 245 1 gusting 5 17.2
2019-Aug-20 07:34 249 16.7
2019-Aug-20 07:29 248 1 gusting 5 16.7
2019-Aug-20 07:24 253 16.7
2019-Aug-20 07:19 253 16.1
2019-Aug-20 07:14 257 0 gusting 4 16.1
2019-Aug-20 07:09 261 16.1
2019-Aug-20 07:04 262 15.6
2019-Aug-20 06:59 259 15.6
2019-Aug-20 06:54 259 15.6
2019-Aug-20 06:49 259 15.0
2019-Aug-20 06:44 259 0 gusting 4 15.0
2019-Aug-20 06:39 259 15.0
2019-Aug-20 06:34 259 15.0
2019-Aug-20 06:29 259 15.0
2019-Aug-20 06:24 259 15.0
2019-Aug-20 06:19 259 15.0
2019-Aug-20 06:14 258 0 gusting 5 15.0
2019-Aug-20 06:09 258 15.0
2019-Aug-20 06:04 258 15.0
2019-Aug-20 05:59 258 15.0
2019-Aug-20 05:54 258 15.0
2019-Aug-20 05:49 258 15.0
2019-Aug-20 05:44 258 15.0
2019-Aug-20 05:39 257 15.0
2019-Aug-20 05:34 257 15.0
2019-Aug-20 05:29 257 15.0
2019-Aug-20 05:24 252 15.0
2019-Aug-20 05:19 257 0 gusting 5 15.0
2019-Aug-20 05:14 260 15.0
2019-Aug-20 05:09 260 15.0
2019-Aug-20 05:04 260 2 gusting 6 15.0
2019-Aug-20 04:59 243 0 gusting 4 15.0
2019-Aug-20 04:54 266 1 gusting 5 15.0
2019-Aug-20 04:49 281 15.0
2019-Aug-20 04:44 270 0 gusting 6 15.0
2019-Aug-20 04:39 287 15.0
2019-Aug-20 04:34 260 15.0
2019-Aug-20 04:29 268 1 gusting 6 15.0
2019-Aug-20 04:24 267 0 gusting 6 15.0
2019-Aug-20 04:19 272 0 gusting 6 15.0
2019-Aug-20 04:14 262 1 gusting 6 15.0
2019-Aug-20 04:09 270 0 gusting 6 15.0
2019-Aug-20 04:04 253 1 gusting 5 15.0
2019-Aug-20 03:59 271 0 gusting 6 15.0
2019-Aug-20 03:54 272 1 gusting 6 15.0
2019-Aug-20 03:49 279 1 gusting 6 15.0
2019-Aug-20 03:44 250 15.0
2019-Aug-20 03:39 268 0 gusting 6 15.0
2019-Aug-20 03:34 291 1 gusting 6 15.0
2019-Aug-20 03:29 260 1 gusting 5 15.0
2019-Aug-20 03:24 267 1 gusting 6 15.0
2019-Aug-20 03:19 231 1 gusting 6 15.0
2019-Aug-20 03:14 271 2 gusting 6 15.0
2019-Aug-20 03:09 279 1 gusting 7 15.0
2019-Aug-20 03:04 256 2 gusting 7 15.0
2019-Aug-20 02:59 267 0 gusting 6 15.0
2019-Aug-20 02:54 260 1 gusting 5 15.6
2019-Aug-20 02:49 270 1 gusting 6 15.6
2019-Aug-20 02:44 257 0 gusting 4 15.6
2019-Aug-20 02:39 219 15.6
2019-Aug-20 02:34 173 15.6
2019-Aug-20 02:29 234 15.6
2019-Aug-20 02:24 201 0 gusting 6 15.6
2019-Aug-20 02:19 227 1 gusting 6 15.6
2019-Aug-20 02:14 229 0 gusting 5 15.6
2019-Aug-20 02:09 249 2 gusting 7 15.6
2019-Aug-20 02:04 264 5 gusting 11 15.6
2019-Aug-20 01:59 273 1 gusting 10 15.6
2019-Aug-20 01:54 254 4 gusting 10 15.6
2019-Aug-20 01:49 257 4 gusting 8 15.6
2019-Aug-20 01:44 265 3 gusting 10 15.6
2019-Aug-20 01:39 230 5 gusting 12 15.6
2019-Aug-20 01:34 267 4 gusting 8 15.6
2019-Aug-20 01:29 262 5 gusting 10 15.6
2019-Aug-20 01:24 267 1 gusting 10 16.1
2019-Aug-20 01:19 268 0 gusting 6 16.1
2019-Aug-20 01:14 274 6 gusting 11 16.1
2019-Aug-20 01:09 229 4 gusting 10 16.1
2019-Aug-20 01:04 246 0 gusting 10 16.1
2019-Aug-20 00:59 256 5 gusting 12 16.1
2019-Aug-20 00:54 245 6 gusting 10 16.1
2019-Aug-20 00:49 275 2 gusting 10 16.1
2019-Aug-20 00:44 221 0 gusting 5 16.1
2019-Aug-20 00:39 226 16.1
2019-Aug-20 00:34 259 1 gusting 7 16.1
2019-Aug-20 00:29 250 0 gusting 5 16.1
2019-Aug-20 00:24 235 0 gusting 8 16.1
2019-Aug-20 00:19 262 1 gusting 6 16.1
2019-Aug-20 00:14 256 2 gusting 6 16.7
2019-Aug-20 00:09 263 16.7
2019-Aug-20 00:04 208 16.7
2019-Aug-19 23:59 207 16.7
2019-Aug-19 23:54 198 0 gusting 10 16.7
2019-Aug-19 23:49 291 0 gusting 5 16.7
2019-Aug-19 23:44 176 16.7
2019-Aug-19 23:39 284 1 gusting 7 16.7
2019-Aug-19 23:34 262 1 gusting 7 16.7
2019-Aug-19 23:29 254 2 gusting 6 16.7
2019-Aug-19 23:24 205 1 gusting 6 16.7
2019-Aug-19 23:19 256 2 gusting 10 16.7
2019-Aug-19 23:14 262 2 gusting 10 16.7
2019-Aug-19 23:09 226 1 gusting 10 16.7
2019-Aug-19 23:04 248 3 gusting 10 17.2
2019-Aug-19 22:59 254 6 gusting 12 17.2
2019-Aug-19 22:54 253 7 gusting 17 17.2
2019-Aug-19 22:49 257 6 gusting 13 17.2
2019-Aug-19 22:44 266 3 gusting 6 17.2
2019-Aug-19 22:39 263 5 gusting 10 17.2
2019-Aug-19 22:34 262 5 gusting 12 17.2
2019-Aug-19 22:29 275 5 gusting 15 17.2
2019-Aug-19 22:24 242 4 gusting 8 17.2
2019-Aug-19 22:19 241 3 gusting 7 17.2
2019-Aug-19 22:14 286 4 gusting 8 17.8
2019-Aug-19 22:09 169 2 gusting 6 17.8
2019-Aug-19 22:04 255 0 gusting 11 17.8
2019-Aug-19 21:59 241 1 gusting 6 17.8
2019-Aug-19 21:54 265 2 gusting 10 17.8
2019-Aug-19 21:49 194 17.8
2019-Aug-19 21:44 260 1 gusting 6 17.8
2019-Aug-19 21:39 173 0 gusting 6 17.8
2019-Aug-19 21:34 291 2 gusting 8 17.8
2019-Aug-19 21:29 239 18.3
2019-Aug-19 21:24 225 0 gusting 6 18.3
2019-Aug-19 21:19 256 2 gusting 13 18.3
2019-Aug-19 21:14 216 2 gusting 7 18.3
2019-Aug-19 21:09 233 1 gusting 8 18.3
2019-Aug-19 21:04 233 5 gusting 13 18.3
2019-Aug-19 20:59 235 5 gusting 12 18.3
2019-Aug-19 20:54 263 2 gusting 10 18.3
2019-Aug-19 20:49 198 0 gusting 5 18.3
2019-Aug-19 20:44 205 0 gusting 17 18.3
2019-Aug-19 20:39 275 3 gusting 17 18.9
2019-Aug-19 20:34 181 2 gusting 10 18.9
2019-Aug-19 20:29 260 6 gusting 13 18.9
2019-Aug-19 20:24 277 6 gusting 12 18.9
2019-Aug-19 20:19 289 1 gusting 10 18.9
2019-Aug-19 20:14 224 2 gusting 19 18.9
2019-Aug-19 20:09 274 5 gusting 10 19.4
2019-Aug-19 20:04 209 19.4
2019-Aug-19 19:59 221 4 gusting 10 19.4
2019-Aug-19 19:54 211 5 gusting 10 19.4
2019-Aug-19 19:49 262 5 gusting 10 19.4
2019-Aug-19 19:44 247 2 gusting 10 19.4
2019-Aug-19 19:39 248 2 gusting 7 20.0
2019-Aug-19 19:34 206 2 gusting 6 20.0
2019-Aug-19 19:29 240 0 gusting 10 20.0
2019-Aug-19 19:24 193 3 gusting 8 20.0
2019-Aug-19 19:19 243 2 gusting 15 20.0
2019-Aug-19 19:14 268 2 gusting 10 20.0
2019-Aug-19 19:09 234 3 gusting 8 20.6
2019-Aug-19 19:04 255 2 gusting 10 20.6
2019-Aug-19 18:59 277 4 gusting 13 20.6
2019-Aug-19 18:54 289 5 gusting 12 20.6
2019-Aug-19 18:49 229 5 gusting 12 20.6
2019-Aug-19 18:44 267 5 gusting 12 21.1
2019-Aug-19 18:39 262 1 gusting 15 21.1
2019-Aug-19 18:34 166 2 gusting 11 21.1
2019-Aug-19 18:29 232 3 gusting 7 21.7
2019-Aug-19 18:24 272 5 gusting 10 21.7
2019-Aug-19 18:19 297 1 gusting 10 22.2
2019-Aug-19 18:14 222 1 gusting 10 22.2
2019-Aug-19 18:09 280 3 gusting 10 22.2
2019-Aug-19 18:04 243 3 gusting 8 22.8
2019-Aug-19 17:59 232 2 gusting 10 22.8
2019-Aug-19 17:54 246 2 gusting 12 22.8
2019-Aug-19 17:49 195 5 gusting 10 23.3
2019-Aug-19 17:44 226 2 gusting 10 23.3
2019-Aug-19 17:39 263 3 gusting 10 23.3
2019-Aug-19 17:34 179 1 gusting 6 23.3
2019-Aug-19 17:29 272 4 gusting 11 23.9
2019-Aug-19 17:24 235 4 gusting 8 23.9
2019-Aug-19 17:19 274 5 gusting 10 23.9
2019-Aug-19 17:14 252 6 gusting 13 24.4
2019-Aug-19 17:09 247 2 gusting 15 24.4
2019-Aug-19 17:04 234 4 gusting 11 24.4
2019-Aug-19 16:59 249 3 gusting 10 24.4
2019-Aug-19 16:54 238 5 gusting 15 25.0
2019-Aug-19 16:49 257 6 gusting 13 25.0
2019-Aug-19 16:44 217 3 gusting 8 24.4
2019-Aug-19 16:39 208 2 gusting 10 23.9
2019-Aug-19 16:34 149 2 gusting 7 23.3
2019-Aug-19 16:29 264 3 gusting 7 23.3
2019-Aug-19 16:24 098 1 gusting 8 23.9
2019-Aug-19 16:19 256 5 gusting 13 23.9
2019-Aug-19 16:14 213 4 gusting 12 24.4
2019-Aug-19 16:09 212 1 gusting 11 24.4
2019-Aug-19 16:04 251 4 gusting 10 25.0
2019-Aug-19 15:59 247 6 gusting 13 25.0
2019-Aug-19 15:54 257 6 gusting 13 25.6
2019-Aug-19 15:49 221 1 gusting 10 25.6
2019-Aug-19 15:44 269 5 gusting 13 25.6
2019-Aug-19 15:39 257 5 gusting 12 25.6
2019-Aug-19 15:34 243 1 gusting 10 25.6
2019-Aug-19 15:29 203 3 gusting 10 25.6
2019-Aug-19 15:24 272 4 gusting 13 25.6
2019-Aug-19 15:19 224 2 gusting 11 25.6
2019-Aug-19 15:14 266 4 gusting 13 25.6
2019-Aug-19 15:09 226 3 gusting 10 25.6
2019-Aug-19 15:04 151 2 gusting 6 25.0
2019-Aug-19 14:59 240 6 gusting 11 25.6
2019-Aug-19 14:54 250 4 gusting 13 26.1
2019-Aug-19 14:49 257 5 gusting 12 26.1
2019-Aug-19 14:44 229 6 gusting 13 25.6
2019-Aug-19 14:39 177 1 gusting 8 25.6
2019-Aug-19 14:34 202 5 gusting 8 25.6
2019-Aug-19 14:29 254 1 gusting 12 26.1
2019-Aug-19 14:24 230 4 gusting 10 26.7
2019-Aug-19 14:19 204 2 gusting 10 26.7
2019-Aug-19 14:14 242 6 gusting 13 26.7
2019-Aug-19 14:09 242 7 gusting 18 27.2
2019-Aug-19 14:04 256 6 gusting 10 27.8
2019-Aug-19 13:59 194 1 gusting 7 27.8
2019-Aug-19 13:54 231 5 gusting 8 28.3
2019-Aug-19 13:49 282 6 gusting 10 28.3
2019-Aug-19 13:44 214 6 gusting 11 28.9
2019-Aug-19 13:39 273 2 gusting 12 28.9
2019-Aug-19 13:34 273 2 gusting 8 28.9
2019-Aug-19 13:29 325 5 gusting 8 29.4
2019-Aug-19 13:24 238 4 gusting 10 28.9
2019-Aug-19 13:19 224 3 gusting 10 28.9
2019-Aug-19 13:14 266 2 gusting 13 28.9
2019-Aug-19 13:09 253 4 gusting 10 28.9
2019-Aug-19 13:04 242 4 gusting 10 28.3
2019-Aug-19 12:59 291 3 gusting 10 28.3
2019-Aug-19 12:54 249 4 gusting 10 28.3
2019-Aug-19 12:49 267 6 gusting 10 28.3
2019-Aug-19 12:44 264 1 gusting 10 27.8
2019-Aug-19 12:39 240 3 gusting 8 27.8
2019-Aug-19 12:34 217 1 gusting 8 27.2
2019-Aug-19 12:29 242 3 gusting 12 27.2
2019-Aug-19 12:24 308 6 gusting 12 26.7
2019-Aug-19 12:19 223 0 gusting 10 27.2
2019-Aug-19 12:14 260 4 gusting 18 27.2
2019-Aug-19 12:09 237 6 gusting 10 27.2
2019-Aug-19 12:04 177 4 gusting 11 26.7
2019-Aug-19 11:59 267 4 gusting 13 26.7
2019-Aug-19 11:54 222 3 gusting 10 26.7
2019-Aug-19 11:49 271 2 gusting 13 26.7
2019-Aug-19 11:44 289 2 gusting 10 26.1
2019-Aug-19 11:39 292 0 gusting 7 26.1
2019-Aug-19 11:34 255 4 gusting 17 26.1
2019-Aug-19 11:29 281 3 gusting 10 26.7
2019-Aug-19 11:24 227 0 gusting 8 26.1
2019-Aug-19 11:19 234 1 gusting 6 26.1
2019-Aug-19 11:14 262 5 gusting 10 26.1
2019-Aug-19 11:09 224 2 gusting 7 25.6
2019-Aug-19 11:04 253 4 gusting 10 25.6